createdAt,value
2022-09-28T00:02:21.229Z,99773.78
2022-09-28T00:04:51.007Z,99768.50
2022-09-28T00:07:21.004Z,99771.94
2022-09-28T00:09:52.439Z,99772.75
2022-09-28T00:12:25.098Z,99773.56
2022-09-28T00:14:55.824Z,99773.53
2022-09-28T00:17:34.052Z,99763.91
2022-09-28T00:20:05.015Z,99762.13
2022-09-28T00:22:34.736Z,99769.06
2022-09-28T00:25:04.748Z,99759.47
2022-09-28T00:27:37.708Z,99758.56
2022-09-28T00:30:08.409Z,99762.88
2022-09-28T00:32:38.105Z,99761.13
2022-09-28T00:35:08.509Z,99758.50
2022-09-28T00:37:38.244Z,99767.13
2022-09-28T00:40:09.095Z,99768.84
2022-09-28T00:42:43.642Z,99770.56
2022-09-28T00:45:14.142Z,99774.88
2022-09-28T00:47:51.970Z,99767.94
2022-09-28T00:50:28.249Z,99773.19
2022-09-28T00:53:04.328Z,99780.13
2022-09-28T00:55:40.333Z,99781.06
2022-09-28T00:58:16.850Z,99782.81
2022-09-28T01:00:48.298Z,99769.88
2022-09-28T01:03:20.159Z,99774.28
2022-09-28T01:05:51.341Z,99778.69
2022-09-28T01:08:24.020Z,99794.34
2022-09-28T01:10:53.745Z,99788.34
2022-09-28T01:13:27.491Z,99782.34
2022-09-28T01:16:10.280Z,99793.66
2022-09-28T01:18:50.424Z,99797.19
2022-09-28T01:21:23.007Z,99797.28
2022-09-28T01:24:21.758Z,99778.19
2022-09-28T01:26:59.640Z,99781.66
2022-09-28T01:29:42.309Z,99770.34
2022-09-28T01:32:20.528Z,99766.88
2022-09-28T01:34:59.714Z,99765.13
2022-09-28T01:37:35.096Z,99758.22
2022-09-28T01:40:07.549Z,99759.09
2022-09-28T01:42:48.935Z,99759.97
2022-09-28T01:45:25.992Z,99756.50
2022-09-28T01:48:00.847Z,99761.72
2022-09-28T01:50:33.100Z,99752.16
2022-09-28T01:53:10.119Z,99758.25
2022-09-28T01:55:44.676Z,99750.41
2022-09-28T01:58:22.074Z,99752.13
2022-09-28T02:00:59.620Z,99753.88
2022-09-28T02:03:37.753Z,99756.47
2022-09-28T02:06:14.618Z,99760.81
2022-09-28T02:08:52.274Z,99755.63
2022-09-28T02:11:24.169Z,99760.00
2022-09-28T02:14:01.706Z,99761.75
2022-09-28T02:16:37.844Z,99756.56
2022-09-28T02:19:09.449Z,99752.19
2022-09-28T02:21:46.225Z,99748.75
2022-09-28T02:24:21.674Z,99748.75
2022-09-28T02:26:53.539Z,99751.38
2022-09-28T02:29:26.545Z,99755.75
2022-09-28T02:31:56.370Z,99772.28
2022-09-28T02:34:26.350Z,99774.91
2022-09-28T02:36:56.348Z,99767.13
2022-09-28T02:39:26.870Z,99760.16
2022-09-28T02:42:10.447Z,99771.47
2022-09-28T02:45:06.566Z,99767.97
2022-09-28T02:47:57.862Z,99767.97
2022-09-28T02:50:39.657Z,99774.94
2022-09-28T02:53:44.919Z,99777.53
2022-09-28T02:56:33.174Z,99770.56
2022-09-28T02:59:16.566Z,99776.66
2022-09-28T03:02:01.355Z,99781.00
2022-09-28T03:04:37.611Z,99779.25
2022-09-28T03:07:19.232Z,99780.13
2022-09-28T03:09:57.416Z,99774.94
2022-09-28T03:12:30.434Z,99779.31
2022-09-28T03:15:13.889Z,99784.50
2022-09-28T03:17:48.833Z,99774.03
2022-09-28T03:20:19.135Z,99771.41
2022-09-28T03:23:12.335Z,99761.81
2022-09-28T03:25:43.317Z,99758.28
2022-09-28T03:28:15.368Z,99760.91
2022-09-28T03:30:47.569Z,99764.34
2022-09-28T03:33:20.129Z,99757.34
2022-09-28T03:35:50.750Z,99763.38
2022-09-28T03:38:21.247Z,99751.19
2022-09-28T03:40:55.994Z,99759.84
2022-09-28T03:43:26.332Z,99760.72
2022-09-28T03:45:57.669Z,99764.16
2022-09-28T03:48:33.094Z,99764.16
2022-09-28T03:51:04.699Z,99776.34
2022-09-28T03:53:35.664Z,99779.81
2022-09-28T03:56:06.774Z,99800.69
2022-09-28T03:58:37.111Z,99799.00
2022-09-28T04:01:09.237Z,99793.84
2022-09-28T04:03:44.758Z,99787.81
2022-09-28T04:06:15.156Z,99784.34
2022-09-28T04:08:44.975Z,99776.53
2022-09-28T04:11:15.004Z,99780.91
2022-09-28T04:13:44.887Z,99782.66
2022-09-28T04:16:14.651Z,99779.19
2022-09-28T04:18:47.273Z,99782.69
2022-09-28T04:21:23.425Z,99774.84
2022-09-28T04:23:53.199Z,99782.72
2022-09-28T04:26:24.825Z,99789.72
2022-09-28T04:29:07.188Z,99782.75
2022-09-28T04:31:42.305Z,99787.13
2022-09-28T04:34:17.387Z,99780.19
2022-09-28T04:36:47.626Z,99781.94
2022-09-28T04:39:19.300Z,99775.84
2022-09-28T04:41:51.399Z,99781.09
2022-09-28T04:44:21.186Z,99784.56
2022-09-28T04:46:50.843Z,99772.41
2022-09-28T04:49:24.546Z,99785.44
2022-09-28T04:52:00.831Z,99775.88
2022-09-28T04:54:30.492Z,99779.34
2022-09-28T04:57:02.464Z,99775.84
2022-09-28T04:59:39.366Z,99787.16
2022-09-28T05:02:09.658Z,99775.84
2022-09-28T05:04:43.507Z,99777.59
2022-09-28T05:07:15.732Z,99770.63
2022-09-28T05:09:48.707Z,99771.47
2022-09-28T05:12:19.246Z,99768.81
2022-09-28T05:14:49.028Z,99777.50
2022-09-28T05:17:18.888Z,99774.88
2022-09-28T05:19:51.770Z,99782.69
2022-09-28T05:22:23.324Z,99781.81
2022-09-28T05:24:54.814Z,99779.22
2022-09-28T05:27:24.526Z,99779.22
2022-09-28T05:29:54.285Z,99787.03
2022-09-28T05:32:24.052Z,99794.88
2022-09-28T05:35:01.950Z,99795.75
2022-09-28T05:37:31.568Z,99795.75
2022-09-28T05:40:01.494Z,99800.16
2022-09-28T05:42:31.150Z,99793.22
2022-09-28T05:45:01.404Z,99799.34
2022-09-28T05:47:31.132Z,99796.75
2022-09-28T05:50:03.392Z,99784.63
2022-09-28T05:52:33.209Z,99782.00
2022-09-28T05:55:03.571Z,99782.00
2022-09-28T05:57:34.171Z,99783.75
2022-09-28T06:00:08.412Z,99781.16
2022-09-28T06:02:38.467Z,99781.19
2022-09-28T06:05:11.563Z,99773.34
2022-09-28T06:07:43.053Z,99776.00
2022-09-28T06:10:12.771Z,99770.78
2022-09-28T06:12:43.487Z,99768.16
2022-09-28T06:15:13.923Z,99775.97
2022-09-28T06:17:45.577Z,99777.69
2022-09-28T06:20:19.270Z,99784.63
2022-09-28T06:22:49.092Z,99786.34
2022-09-28T06:25:22.686Z,99786.34
2022-09-28T06:28:03.164Z,99783.75
2022-09-28T06:30:39.134Z,99796.78
2022-09-28T06:33:13.752Z,99802.91
2022-09-28T06:35:48.305Z,99810.75
2022-09-28T06:38:20.691Z,99813.38
2022-09-28T06:40:52.089Z,99818.63
2022-09-28T06:43:21.956Z,99812.53
2022-09-28T06:45:55.038Z,99809.97
2022-09-28T06:48:24.732Z,99803.03
2022-09-28T06:50:59.270Z,99808.31
2022-09-28T06:53:29.506Z,99808.38
2022-09-28T06:56:00.625Z,99825.88
2022-09-28T06:58:31.562Z,99834.66
2022-09-28T07:01:02.141Z,99848.69
2022-09-28T07:03:31.795Z,99841.78
2022-09-28T07:06:05.085Z,99836.63
2022-09-28T07:08:34.884Z,99841.00
2022-09-28T07:11:09.142Z,99842.75
2022-09-28T07:13:55.999Z,99836.69
2022-09-28T07:16:32.959Z,99827.13
2022-09-28T07:19:11.086Z,99834.09
2022-09-28T07:21:44.277Z,99835.88
2022-09-28T07:24:14.836Z,99831.53
2022-09-28T07:26:45.556Z,99837.66
2022-09-28T07:29:16.307Z,99837.69
2022-09-28T07:31:47.043Z,99835.97
2022-09-28T07:34:18.686Z,99832.50
2022-09-28T07:36:59.021Z,99837.75
2022-09-28T07:39:28.660Z,99840.41
2022-09-28T07:41:59.662Z,99833.44
2022-09-28T07:44:32.151Z,99829.97
2022-09-28T07:47:02.721Z,99839.56
2022-09-28T07:49:32.443Z,99848.31
2022-09-28T07:52:09.167Z,99850.03
2022-09-28T07:54:39.522Z,99852.66
2022-09-28T07:57:11.674Z,99857.91
2022-09-28T07:59:41.669Z,99853.56
2022-09-28T08:02:13.558Z,99850.97
2022-09-28T08:04:43.654Z,99847.47
2022-09-28T08:07:19.467Z,99846.56
2022-09-28T08:09:52.576Z,99858.78
2022-09-28T08:12:22.923Z,99857.03
2022-09-28T08:14:55.977Z,99864.00
2022-09-28T08:17:25.580Z,99860.50
2022-09-28T08:20:07.674Z,99866.59
2022-09-28T08:22:39.984Z,99864.84
2022-09-28T08:25:11.385Z,99868.28
2022-09-28T08:27:41.165Z,99868.25
2022-09-28T08:30:12.455Z,99875.31
2022-09-28T08:32:42.630Z,99872.66
2022-09-28T08:35:12.585Z,99873.56
2022-09-28T08:37:48.874Z,99875.25
2022-09-28T08:40:26.465Z,99875.09
2022-09-28T08:42:59.566Z,99868.88
2022-09-28T08:45:33.730Z,99868.97
2022-09-28T08:48:19.104Z,99868.00
2022-09-28T08:50:55.365Z,99873.25
2022-09-28T08:53:40.157Z,99875.94
2022-09-28T08:56:17.786Z,99883.72
2022-09-28T08:58:52.505Z,99888.06
2022-09-28T09:01:23.076Z,99890.56
2022-09-28T09:03:52.829Z,99893.91
2022-09-28T09:06:33.437Z,99898.88
2022-09-28T09:09:13.314Z,99900.47
2022-09-28T09:11:58.711Z,99906.31
2022-09-28T09:14:56.703Z,99904.59
2022-09-28T09:17:33.887Z,99898.97
2022-09-28T09:20:14.080Z,99910.28
2022-09-28T09:22:48.345Z,99913.09
2022-09-28T09:25:28.377Z,99907.34
2022-09-28T09:28:35.453Z,99908.88
2022-09-28T09:31:16.885Z,99908.31
2022-09-28T09:34:23.175Z,99908.97
2022-09-28T09:37:16.825Z,99906.09
2022-09-28T09:40:04.396Z,99912.06
2022-09-28T09:42:51.464Z,99907.78
2022-09-28T09:45:52.956Z,99901.66
2022-09-28T09:48:29.463Z,99902.94
2022-09-28T09:51:03.952Z,99907.63
2022-09-28T09:53:40.897Z,99903.91
2022-09-28T09:56:16.460Z,99897.97
2022-09-28T09:58:52.899Z,99904.94
2022-09-28T10:01:27.126Z,99898.75
2022-09-28T10:03:59.085Z,99898.31
2022-09-28T10:06:34.549Z,99895.50
2022-09-28T10:09:07.646Z,99898.66
2022-09-28T10:11:41.167Z,99901.13
2022-09-28T10:14:16.686Z,99901.09
2022-09-28T10:16:48.544Z,99902.03
2022-09-28T10:19:21.538Z,99909.69
2022-09-28T10:21:53.317Z,99899.53
2022-09-28T10:24:30.849Z,99896.94
2022-09-28T10:27:07.891Z,99896.72
2022-09-28T10:29:48.606Z,99904.69
2022-09-28T10:32:24.412Z,99896.22
2022-09-28T10:34:55.347Z,99903.09
2022-09-28T10:37:25.222Z,99910.28
2022-09-28T10:39:56.963Z,99906.75
2022-09-28T10:42:31.283Z,99904.91
2022-09-28T10:45:07.171Z,99911.03
2022-09-28T10:47:38.649Z,99910.09
2022-09-28T10:50:22.700Z,99911.13
2022-09-28T10:52:52.692Z,99912.47
2022-09-28T10:55:32.493Z,99906.84
2022-09-28T10:58:02.798Z,99903.53
2022-09-28T11:00:40.465Z,99904.22
2022-09-28T11:03:21.410Z,99901.59
2022-09-28T11:06:03.562Z,99898.19
2022-09-28T11:08:39.017Z,99893.41
2022-09-28T11:11:12.382Z,99893.75
2022-09-28T11:13:49.616Z,99897.72
2022-09-28T11:16:28.778Z,99896.84
2022-09-28T11:18:59.491Z,99888.13
2022-09-28T11:21:32.323Z,99890.53
2022-09-28T11:24:07.174Z,99895.34
2022-09-28T11:26:45.239Z,99894.94
2022-09-28T11:29:24.810Z,99890.38
2022-09-28T11:32:03.767Z,99896.13
2022-09-28T11:34:57.878Z,99887.16
2022-09-28T11:37:42.421Z,99892.81
2022-09-28T11:40:26.021Z,99885.88
2022-09-28T11:43:14.403Z,99887.44
2022-09-28T11:45:57.162Z,99889.66
2022-09-28T11:48:36.130Z,99889.09
2022-09-28T11:51:11.151Z,99890.66
2022-09-28T11:53:46.715Z,99888.03
2022-09-28T11:56:27.574Z,99887.28
2022-09-28T11:59:02.736Z,99895.94
2022-09-28T12:01:39.177Z,99889.03
2022-09-28T12:04:14.901Z,99890.75
2022-09-28T12:06:50.902Z,99894.22
2022-09-28T12:09:25.405Z,99889.88
2022-09-28T12:12:01.796Z,99897.69
2022-09-28T12:14:36.215Z,99903.22
2022-09-28T12:17:16.587Z,99903.03
2022-09-28T12:19:55.488Z,99901.84
2022-09-28T12:22:29.719Z,99908.91
2022-09-28T12:25:00.908Z,99917.09
2022-09-28T12:27:38.954Z,99922.38
2022-09-28T12:30:19.401Z,99919.22
2022-09-28T12:32:54.182Z,99925.41
2022-09-28T12:35:38.806Z,99920.44
2022-09-28T12:38:28.783Z,99928.34
2022-09-28T12:41:06.788Z,99922.91
2022-09-28T12:43:49.640Z,99928.44
2022-09-28T12:46:49.111Z,99927.50
2022-09-28T12:52:34.774Z,99928.47
2022-09-28T12:55:18.032Z,99926.00
2022-09-28T12:57:59.525Z,99922.88
2022-09-28T13:00:34.794Z,99924.72
2022-09-28T13:03:32.039Z,99924.78
2022-09-28T13:06:34.430Z,99931.22
2022-09-28T13:09:20.134Z,99939.03
2022-09-28T13:12:06.920Z,99946.22
2022-09-28T13:15:18.681Z,99947.88
2022-09-28T13:17:55.404Z,99945.66
2022-09-28T13:20:32.996Z,99950.81
2022-09-28T13:23:15.242Z,99955.09
2022-09-28T13:25:56.078Z,99956.31
2022-09-28T13:28:27.572Z,99958.94
2022-09-28T13:31:00.817Z,99963.63
2022-09-28T13:33:37.183Z,99957.31
2022-09-28T13:36:27.876Z,99958.31
2022-09-28T13:38:59.534Z,99967.19
2022-09-28T13:41:34.924Z,99960.97
2022-09-28T13:44:37.978Z,99967.97
2022-09-28T13:47:30.631Z,99971.38
2022-09-28T13:50:16.395Z,99973.22
2022-09-28T13:52:51.078Z,99965.22
2022-09-28T13:55:36.007Z,99964.38
2022-09-28T13:58:17.924Z,99962.56
2022-09-28T14:00:52.662Z,99966.03
2022-09-28T14:03:31.539Z,99973.75
2022-09-28T14:06:23.126Z,99970.25
2022-09-28T14:09:12.410Z,99973.69
2022-09-28T14:11:56.507Z,99972.97
2022-09-28T14:14:51.999Z,99974.03
2022-09-28T14:17:54.463Z,99980.22
2022-09-28T14:20:28.997Z,99978.41
2022-09-28T14:23:26.770Z,99971.34
2022-09-28T14:26:09.445Z,99983.69
2022-09-28T14:28:51.975Z,99974.94
2022-09-28T14:31:29.239Z,99978.38
2022-09-28T14:34:01.697Z,99971.34
2022-09-28T14:36:51.371Z,99974.03
2022-09-28T14:39:38.998Z,99968.75
2022-09-28T14:42:15.750Z,99966.22
2022-09-28T14:45:16.752Z,99976.06
2022-09-28T14:48:23.718Z,99974.41
2022-09-28T14:50:55.822Z,99967.50
2022-09-28T14:53:27.262Z,99973.69
2022-09-28T14:56:00.546Z,99976.38
2022-09-28T14:58:33.695Z,99972.13
2022-09-28T15:01:08.245Z,99975.59
2022-09-28T15:03:44.308Z,99983.53
2022-09-28T15:06:19.875Z,99980.88
2022-09-28T15:08:49.660Z,99987.97
2022-09-28T15:11:23.684Z,99991.44
2022-09-28T15:13:57.240Z,100002.81
2022-09-28T15:16:27.626Z,100003.75
2022-09-28T15:19:20.611Z,100008.97
2022-09-28T15:21:51.284Z,100009.00
2022-09-28T15:24:28.819Z,100014.28
2022-09-28T15:26:59.233Z,100012.53
2022-09-28T15:29:31.733Z,100013.41
2022-09-28T15:32:01.931Z,100014.28
2022-09-28T15:34:48.586Z,100010.78
2022-09-28T15:37:21.955Z,100008.16
2022-09-28T15:39:53.062Z,100005.56
2022-09-28T15:42:23.244Z,100000.31
2022-09-28T15:45:30.914Z,100007.31
2022-09-28T15:48:22.406Z,99997.69
2022-09-28T15:51:10.262Z,99999.44
2022-09-28T15:53:45.079Z,99998.59
2022-09-28T15:56:14.786Z,99987.22
2022-09-28T15:58:44.681Z,99997.72
2022-09-28T16:01:36.198Z,99995.09
2022-09-28T16:04:36.369Z,99988.97
2022-09-28T16:07:26.120Z,99985.47
2022-09-28T16:10:04.266Z,99992.47
2022-09-28T16:12:44.584Z,99991.59
2022-09-28T16:15:22.946Z,99989.84
2022-09-28T16:17:55.120Z,99989.84
2022-09-28T16:20:29.649Z,99994.22
2022-09-28T16:23:07.462Z,99993.34
2022-09-28T16:25:40.351Z,99995.09
2022-09-28T16:28:10.634Z,99998.59
2022-09-28T16:31:01.879Z,99996.84
2022-09-28T16:33:33.995Z,100005.59
2022-09-28T16:36:05.778Z,100002.97
2022-09-28T16:38:39.222Z,99999.47
2022-09-28T16:41:09.068Z,100005.59
2022-09-28T16:43:39.007Z,99999.50
2022-09-28T16:46:12.187Z,100010.84
2022-09-28T16:48:48.830Z,100005.59
2022-09-28T16:51:18.975Z,100013.47
2022-09-28T16:54:04.185Z,100017.78
2022-09-28T16:56:34.729Z,100017.78
2022-09-28T16:59:05.041Z,100018.63
2022-09-28T17:01:35.433Z,100016.88
2022-09-28T17:04:05.413Z,100012.50
2022-09-28T17:06:35.370Z,100010.72
2022-09-28T17:09:07.860Z,100015.97
2022-09-28T17:11:37.555Z,100014.19
2022-09-28T17:14:08.902Z,100016.78
2022-09-28T17:17:06.971Z,100023.75
2022-09-28T17:19:33.228Z,100021.13
2022-09-28T17:22:03.442Z,100020.22
2022-09-28T17:24:35.699Z,100027.19
2022-09-28T17:27:07.045Z,100020.16
2022-09-28T17:29:36.692Z,100027.13
2022-09-28T17:32:14.836Z,100029.72
2022-09-28T17:34:51.625Z,100033.19
2022-09-28T17:37:25.948Z,100028.81
2022-09-28T17:39:58.490Z,100027.88
2022-09-28T17:42:28.358Z,100033.94
2022-09-28T17:44:58.103Z,100032.16
2022-09-28T17:47:32.181Z,100039.09
2022-09-28T17:50:03.974Z,100035.56
2022-09-28T17:52:33.790Z,100039.84
2022-09-28T17:55:06.117Z,100037.19
2022-09-28T17:57:36.040Z,100032.75
2022-09-28T18:00:06.774Z,100037.94
2022-09-28T18:02:36.596Z,100044.00
2022-09-28T18:05:06.705Z,100043.97
2022-09-28T18:07:37.081Z,100036.06
2022-09-28T18:10:12.276Z,100045.63
2022-09-28T18:12:43.218Z,100042.09
2022-09-28T18:15:13.940Z,100049.03
2022-09-28T18:17:44.318Z,100044.66
2022-09-28T18:20:15.925Z,100046.41
2022-09-28T18:22:45.734Z,100049.00
2022-09-28T18:25:19.700Z,100052.47
2022-09-28T18:27:53.365Z,100054.19
2022-09-28T18:30:23.714Z,100052.41
2022-09-28T18:32:53.641Z,100052.41
2022-09-28T18:35:23.898Z,100052.38
2022-09-28T18:37:54.373Z,100045.38
2022-09-28T18:40:27.744Z,100054.06
2022-09-28T18:42:57.558Z,100060.16
2022-09-28T18:45:27.203Z,100056.59
2022-09-28T18:47:57.019Z,100059.16
2022-09-28T18:50:27.041Z,100058.22
2022-09-28T18:53:11.481Z,100062.59
2022-09-28T18:55:46.010Z,100052.09
2022-09-28T18:58:15.699Z,100059.91
2022-09-28T19:00:45.603Z,100063.41
2022-09-28T19:03:15.532Z,100065.19
2022-09-28T19:05:46.587Z,100069.53
2022-09-28T19:08:16.480Z,100063.41
2022-09-28T19:10:48.875Z,100066.84
2022-09-28T19:13:18.456Z,100068.56
2022-09-28T19:15:48.390Z,100065.88
2022-09-28T19:18:18.038Z,100065.88
2022-09-28T19:20:47.775Z,100064.13
2022-09-28T19:23:17.634Z,100061.47
2022-09-28T19:25:49.827Z,100067.50
2022-09-28T19:28:19.519Z,100073.56
2022-09-28T19:30:58.615Z,100070.03
2022-09-28T19:33:29.265Z,100071.69
2022-09-28T19:36:02.249Z,100073.38
2022-09-28T19:38:33.432Z,100071.56
2022-09-28T19:41:11.610Z,100077.63
2022-09-28T19:43:43.863Z,100076.78
2022-09-28T19:46:15.942Z,100075.03
2022-09-28T19:48:45.650Z,100080.28
2022-09-28T19:51:15.828Z,100078.56
2022-09-28T19:53:45.544Z,100088.13
2022-09-28T19:56:18.938Z,100084.63
2022-09-28T19:58:48.604Z,100080.25
2022-09-28T20:01:18.590Z,100082.00
2022-09-28T20:03:48.266Z,100082.00
2022-09-28T20:06:17.899Z,100089.88
2022-09-28T20:08:47.542Z,100096.00
2022-09-28T20:11:19.849Z,100096.06
2022-09-28T20:13:50.035Z,100090.78
2022-09-28T20:16:24.467Z,100093.34
2022-09-28T20:18:58.284Z,100096.00
2022-09-28T20:21:28.702Z,100102.88
2022-09-28T20:23:59.076Z,100101.13
2022-09-28T20:26:37.414Z,100094.06
2022-09-28T20:29:08.135Z,100107.06
2022-09-28T20:31:41.148Z,100097.50
2022-09-28T20:34:10.884Z,100088.72
2022-09-28T20:36:42.483Z,100095.69
2022-09-28T20:39:13.505Z,100099.97
2022-09-28T20:41:47.239Z,100099.94
2022-09-28T20:44:16.893Z,100100.81
2022-09-28T20:46:47.386Z,100095.56
2022-09-28T20:49:16.988Z,100096.41
2022-09-28T20:51:46.823Z,100092.03
2022-09-28T20:54:16.544Z,100083.34
2022-09-28T20:56:48.909Z,100078.97
2022-09-28T20:59:20.385Z,100080.66
2022-09-28T21:01:52.477Z,100078.06
2022-09-28T21:04:24.918Z,100077.19
2022-09-28T21:06:54.792Z,100078.09
2022-09-28T21:09:26.751Z,100081.63
2022-09-28T21:12:02.190Z,100083.41
2022-09-28T21:14:37.793Z,100081.66
2022-09-28T21:17:07.701Z,100076.44
2022-09-28T21:19:37.514Z,100078.19
2022-09-28T21:22:07.729Z,100071.22
2022-09-28T21:24:37.804Z,100069.53
2022-09-28T21:27:10.048Z,100077.34
2022-09-28T21:29:39.952Z,100068.69
2022-09-28T21:32:09.555Z,100070.41
2022-09-28T21:34:39.156Z,100078.28
2022-09-28T21:37:09.182Z,100067.88
2022-09-28T21:39:38.831Z,100076.56
2022-09-28T21:42:11.487Z,100074.78
2022-09-28T21:44:41.133Z,100087.88
2022-09-28T21:47:11.088Z,100095.75
2022-09-28T21:49:41.790Z,100102.72
2022-09-28T21:52:11.961Z,100100.97
2022-09-28T21:54:42.883Z,100102.78
2022-09-28T21:57:15.189Z,100097.53
2022-09-28T21:59:47.602Z,100087.16
2022-09-28T22:02:17.358Z,100091.63
2022-09-28T22:04:47.157Z,100098.59
2022-09-28T22:07:17.072Z,100100.31
2022-09-28T22:09:50.438Z,100104.69
2022-09-28T22:12:25.199Z,100099.50
2022-09-28T22:14:54.839Z,100108.19
2022-09-28T22:17:24.591Z,100110.81
2022-09-28T22:19:54.203Z,100110.78
2022-09-28T22:22:28.397Z,100114.25
2022-09-28T22:24:58.874Z,100107.28
2022-09-28T22:27:34.082Z,100111.63
2022-09-28T22:30:04.740Z,100115.13
2022-09-28T22:32:34.634Z,100115.22
2022-09-28T22:35:04.840Z,100113.44
2022-09-28T22:37:34.525Z,100114.34
2022-09-28T22:40:04.894Z,100110.84
2022-09-28T22:42:38.215Z,100117.78
2022-09-28T22:45:10.019Z,100109.09
2022-09-28T22:47:39.587Z,100116.88
2022-09-28T22:50:10.209Z,100116.88
2022-09-28T22:52:39.818Z,100110.81
2022-09-28T22:55:10.125Z,100110.00
2022-09-28T22:57:42.402Z,100116.06
2022-09-28T23:00:13.054Z,100112.59
2022-09-28T23:02:42.845Z,100112.56
2022-09-28T23:05:12.602Z,100110.81
2022-09-28T23:07:42.311Z,100119.53
2022-09-28T23:10:12.892Z,100116.06
2022-09-28T23:12:45.216Z,100120.44
2022-09-28T23:15:15.496Z,100122.13
2022-09-28T23:17:45.110Z,100118.59
2022-09-28T23:20:14.767Z,100125.59
2022-09-28T23:22:48.678Z,100119.44
2022-09-28T23:25:18.642Z,100128.13
2022-09-28T23:27:52.270Z,100132.34
2022-09-28T23:30:24.090Z,100134.91
2022-09-28T23:32:55.221Z,100139.19
2022-09-28T23:35:25.432Z,100143.53
2022-09-28T23:37:56.500Z,100133.94
2022-09-28T23:40:26.242Z,100136.50
2022-09-28T23:42:58.631Z,100134.72
2022-09-28T23:45:28.326Z,100139.94
2022-09-28T23:47:57.983Z,100128.63
2022-09-28T23:50:28.336Z,100125.06
2022-09-28T23:52:58.087Z,100132.78
2022-09-28T23:55:27.935Z,100128.34
2022-09-28T23:58:00.514Z,100129.06
